sensor_id;sensor_type;location;lat;lon;timestamp;temperature;humidity
65598;SHT31;52267;51.984;20.956;2022-10-16T00:01:24;13.68;77.98
65598;SHT31;52267;51.984;20.956;2022-10-16T00:03:53;13.67;78.00
65598;SHT31;52267;51.984;20.956;2022-10-16T00:06:21;13.67;78.07
65598;SHT31;52267;51.984;20.956;2022-10-16T00:08:49;13.66;78.07
65598;SHT31;52267;51.984;20.956;2022-10-16T00:11:20;13.67;78.08
65598;SHT31;52267;51.984;20.956;2022-10-16T00:13:50;13.67;78.14
65598;SHT31;52267;51.984;20.956;2022-10-16T00:16:21;13.67;78.21
65598;SHT31;52267;51.984;20.956;2022-10-16T00:18:48;13.67;78.22
65598;SHT31;52267;51.984;20.956;2022-10-16T00:21:15;13.66;78.29
65598;SHT31;52267;51.984;20.956;2022-10-16T00:23:50;13.65;78.36
65598;SHT31;52267;51.984;20.956;2022-10-16T00:26:21;13.64;78.50
65598;SHT31;52267;51.984;20.956;2022-10-16T00:28:49;13.65;78.42
65598;SHT31;52267;51.984;20.956;2022-10-16T00:31:17;13.65;78.42
65598;SHT31;52267;51.984;20.956;2022-10-16T00:33:45;13.65;78.46
65598;SHT31;52267;51.984;20.956;2022-10-16T00:36:14;13.65;78.50
65598;SHT31;52267;51.984;20.956;2022-10-16T00:38:44;13.64;78.60
65598;SHT31;52267;51.984;20.956;2022-10-16T00:41:12;13.64;78.58
65598;SHT31;52267;51.984;20.956;2022-10-16T00:49:29;13.63;78.62
65598;SHT31;52267;51.984;20.956;2022-10-16T00:51:42;13.63;78.69
65598;SHT31;52267;51.984;20.956;2022-10-16T00:54:22;13.63;78.62
65598;SHT31;52267;51.984;20.956;2022-10-16T00:56:52;13.63;78.59
65598;SHT31;52267;51.984;20.956;2022-10-16T00:59:25;13.63;78.61
65598;SHT31;52267;51.984;20.956;2022-10-16T01:01:55;13.61;78.64
65598;SHT31;52267;51.984;20.956;2022-10-16T01:04:23;13.61;78.60
65598;SHT31;52267;51.984;20.956;2022-10-16T01:06:56;13.62;78.49
65598;SHT31;52267;51.984;20.956;2022-10-16T01:13:05;13.67;78.27
65598;SHT31;52267;51.984;20.956;2022-10-16T01:15:51;13.67;78.26
65598;SHT31;52267;51.984;20.956;2022-10-16T01:18:43;13.72;78.12
65598;SHT31;52267;51.984;20.956;2022-10-16T01:21:21;13.73;78.13
65598;SHT31;52267;51.984;20.956;2022-10-16T01:24:08;13.74;77.97
65598;SHT31;52267;51.984;20.956;2022-10-16T01:29:56;13.81;77.83
65598;SHT31;52267;51.984;20.956;2022-10-16T01:35:26;13.82;77.87
65598;SHT31;52267;51.984;20.956;2022-10-16T01:37:59;13.83;77.89
65598;SHT31;52267;51.984;20.956;2022-10-16T01:40:37;13.82;77.94
65598;SHT31;52267;51.984;20.956;2022-10-16T01:43:27;13.82;78.00
65598;SHT31;52267;51.984;20.956;2022-10-16T01:45:59;13.81;78.05
65598;SHT31;52267;51.984;20.956;2022-10-16T01:48:27;13.81;78.10
65598;SHT31;52267;51.984;20.956;2022-10-16T01:51:00;13.80;78.19
65598;SHT31;52267;51.984;20.956;2022-10-16T01:53:40;13.79;78.22
65598;SHT31;52267;51.984;20.956;2022-10-16T01:56:12;13.77;78.31
65598;SHT31;52267;51.984;20.956;2022-10-16T01:58:44;13.75;78.37
65598;SHT31;52267;51.984;20.956;2022-10-16T02:01:16;13.74;78.34
65598;SHT31;52267;51.984;20.956;2022-10-16T02:03:46;13.75;78.34
65598;SHT31;52267;51.984;20.956;2022-10-16T02:06:17;13.73;78.44
65598;SHT31;52267;51.984;20.956;2022-10-16T02:08:43;13.72;78.51
65598;SHT31;52267;51.984;20.956;2022-10-16T02:11:10;13.71;78.58
65598;SHT31;52267;51.984;20.956;2022-10-16T02:13:51;13.70;78.57
65598;SHT31;52267;51.984;20.956;2022-10-16T02:16:34;13.69;78.56
65598;SHT31;52267;51.984;20.956;2022-10-16T02:19:12;13.71;78.46
65598;SHT31;52267;51.984;20.956;2022-10-16T02:21:44;13.70;78.46
65598;SHT31;52267;51.984;20.956;2022-10-16T02:27:13;13.70;78.58
65598;SHT31;52267;51.984;20.956;2022-10-16T02:29:51;13.69;78.61
65598;SHT31;52267;51.984;20.956;2022-10-16T02:32:24;13.69;78.71
65598;SHT31;52267;51.984;20.956;2022-10-16T02:34:56;13.69;78.67
65598;SHT31;52267;51.984;20.956;2022-10-16T02:37:24;13.69;78.70
65598;SHT31;52267;51.984;20.956;2022-10-16T02:39:51;13.68;78.79
65598;SHT31;52267;51.984;20.956;2022-10-16T02:42:18;13.67;78.84
65598;SHT31;52267;51.984;20.956;2022-10-16T02:44:44;13.66;78.97
65598;SHT31;52267;51.984;20.956;2022-10-16T02:47:10;13.66;78.92
65598;SHT31;52267;51.984;20.956;2022-10-16T02:49:37;13.65;78.93
65598;SHT31;52267;51.984;20.956;2022-10-16T02:52:03;13.65;78.92
65598;SHT31;52267;51.984;20.956;2022-10-16T02:54:30;13.65;78.99
65598;SHT31;52267;51.984;20.956;2022-10-16T02:56:56;13.64;79.07
65598;SHT31;52267;51.984;20.956;2022-10-16T02:59:22;13.63;78.96
65598;SHT31;52267;51.984;20.956;2022-10-16T03:01:48;13.63;78.98
65598;SHT31;52267;51.984;20.956;2022-10-16T03:04:14;13.63;79.09
65598;SHT31;52267;51.984;20.956;2022-10-16T03:06:41;13.62;78.96
65598;SHT31;52267;51.984;20.956;2022-10-16T03:09:07;13.61;78.96
65598;SHT31;52267;51.984;20.956;2022-10-16T03:11:33;13.58;78.94
65598;SHT31;52267;51.984;20.956;2022-10-16T03:13:59;13.59;78.88
65598;SHT31;52267;51.984;20.956;2022-10-16T03:16:26;13.58;78.77
65598;SHT31;52267;51.984;20.956;2022-10-16T03:18:52;13.59;78.73
65598;SHT31;52267;51.984;20.956;2022-10-16T03:21:18;13.57;78.79
65598;SHT31;52267;51.984;20.956;2022-10-16T03:23:44;13.57;78.87
65598;SHT31;52267;51.984;20.956;2022-10-16T03:26:10;13.56;78.86
65598;SHT31;52267;51.984;20.956;2022-10-16T03:28:36;13.55;78.87
65598;SHT31;52267;51.984;20.956;2022-10-16T03:31:03;13.56;78.84
65598;SHT31;52267;51.984;20.956;2022-10-16T03:33:29;13.55;78.98
65598;SHT31;52267;51.984;20.956;2022-10-16T03:35:55;13.53;78.97
65598;SHT31;52267;51.984;20.956;2022-10-16T03:38:22;13.53;79.01
65598;SHT31;52267;51.984;20.956;2022-10-16T03:40:48;13.52;79.10
65598;SHT31;52267;51.984;20.956;2022-10-16T03:43:14;13.51;79.11
65598;SHT31;52267;51.984;20.956;2022-10-16T03:45:40;13.49;79.13
65598;SHT31;52267;51.984;20.956;2022-10-16T03:48:07;13.47;79.19
65598;SHT31;52267;51.984;20.956;2022-10-16T03:50:33;13.44;79.21
65598;SHT31;52267;51.984;20.956;2022-10-16T03:52:59;13.41;79.30
65598;SHT31;52267;51.984;20.956;2022-10-16T03:55:25;13.37;79.33
65598;SHT31;52267;51.984;20.956;2022-10-16T03:57:51;13.31;79.43
65598;SHT31;52267;51.984;20.956;2022-10-16T04:00:18;13.26;79.47
65598;SHT31;52267;51.984;20.956;2022-10-16T04:02:44;13.20;79.72
65598;SHT31;52267;51.984;20.956;2022-10-16T04:05:11;13.15;79.74
65598;SHT31;52267;51.984;20.956;2022-10-16T04:07:37;13.10;79.68
65598;SHT31;52267;51.984;20.956;2022-10-16T04:10:04;13.07;79.75
65598;SHT31;52267;51.984;20.956;2022-10-16T04:12:31;13.02;79.82
65598;SHT31;52267;51.984;20.956;2022-10-16T04:14:57;12.99;79.98
65598;SHT31;52267;51.984;20.956;2022-10-16T04:17:24;12.92;80.04
65598;SHT31;52267;51.984;20.956;2022-10-16T04:19:50;12.89;80.00
65598;SHT31;52267;51.984;20.956;2022-10-16T04:22:16;12.81;80.08
65598;SHT31;52267;51.984;20.956;2022-10-16T04:24:42;12.75;80.20
65598;SHT31;52267;51.984;20.956;2022-10-16T04:27:08;12.68;80.29
65598;SHT31;52267;51.984;20.956;2022-10-16T04:29:35;12.63;80.28
65598;SHT31;52267;51.984;20.956;2022-10-16T04:32:01;12.59;80.30
65598;SHT31;52267;51.984;20.956;2022-10-16T04:34:27;12.53;80.40
65598;SHT31;52267;51.984;20.956;2022-10-16T04:36:53;12.47;80.47
65598;SHT31;52267;51.984;20.956;2022-10-16T04:39:19;12.40;80.54
65598;SHT31;52267;51.984;20.956;2022-10-16T04:41:45;12.34;80.63
65598;SHT31;52267;51.984;20.956;2022-10-16T04:44:12;12.30;80.77
65598;SHT31;52267;51.984;20.956;2022-10-16T04:46:38;12.24;80.87
65598;SHT31;52267;51.984;20.956;2022-10-16T04:49:04;12.18;80.96
65598;SHT31;52267;51.984;20.956;2022-10-16T04:51:31;12.13;81.04
65598;SHT31;52267;51.984;20.956;2022-10-16T04:53:57;12.08;81.19
65598;SHT31;52267;51.984;20.956;2022-10-16T04:56:23;12.04;81.42
65598;SHT31;52267;51.984;20.956;2022-10-16T04:58:50;11.99;81.35
65598;SHT31;52267;51.984;20.956;2022-10-16T05:01:16;11.94;81.38
65598;SHT31;52267;51.984;20.956;2022-10-16T05:03:42;11.89;81.53
65598;SHT31;52267;51.984;20.956;2022-10-16T05:06:08;11.82;81.89
65598;SHT31;52267;51.984;20.956;2022-10-16T05:08:34;11.78;81.85
65598;SHT31;52267;51.984;20.956;2022-10-16T05:11:01;11.75;81.84
65598;SHT31;52267;51.984;20.956;2022-10-16T05:13:27;11.71;82.00
65598;SHT31;52267;51.984;20.956;2022-10-16T05:15:53;11.68;81.90
65598;SHT31;52267;51.984;20.956;2022-10-16T05:18:20;11.67;82.04
65598;SHT31;52267;51.984;20.956;2022-10-16T05:20:46;11.66;82.10
65598;SHT31;52267;51.984;20.956;2022-10-16T05:23:12;11.65;82.08
65598;SHT31;52267;51.984;20.956;2022-10-16T05:25:38;11.63;82.23
65598;SHT31;52267;51.984;20.956;2022-10-16T05:28:05;11.61;82.55
65598;SHT31;52267;51.984;20.956;2022-10-16T05:30:31;11.60;82.44
65598;SHT31;52267;51.984;20.956;2022-10-16T05:32:57;11.59;82.43
65598;SHT31;52267;51.984;20.956;2022-10-16T05:35:23;11.57;82.45
65598;SHT31;52267;51.984;20.956;2022-10-16T05:37:50;11.57;82.47
65598;SHT31;52267;51.984;20.956;2022-10-16T05:40:16;11.58;82.61
65598;SHT31;52267;51.984;20.956;2022-10-16T05:42:42;11.58;83.23
65598;SHT31;52267;51.984;20.956;2022-10-16T05:45:09;11.60;83.25
65598;SHT31;52267;51.984;20.956;2022-10-16T05:47:37;11.63;83.15
65598;SHT31;52267;51.984;20.956;2022-10-16T05:50:03;11.66;83.64
65598;SHT31;52267;51.984;20.956;2022-10-16T05:52:30;11.67;83.48
65598;SHT31;52267;51.984;20.956;2022-10-16T05:54:56;11.69;83.19
65598;SHT31;52267;51.984;20.956;2022-10-16T05:57:22;11.71;83.33
65598;SHT31;52267;51.984;20.956;2022-10-16T05:59:48;11.73;83.20
65598;SHT31;52267;51.984;20.956;2022-10-16T06:02:15;11.77;83.08
65598;SHT31;52267;51.984;20.956;2022-10-16T06:04:41;11.81;83.19
65598;SHT31;52267;51.984;20.956;2022-10-16T06:07:07;11.90;83.73
65598;SHT31;52267;51.984;20.956;2022-10-16T06:09:33;12.01;83.96
65598;SHT31;52267;51.984;20.956;2022-10-16T06:12:00;12.12;83.41
65598;SHT31;52267;51.984;20.956;2022-10-16T06:14:26;12.21;83.48
65598;SHT31;52267;51.984;20.956;2022-10-16T06:16:52;12.33;84.17
65598;SHT31;52267;51.984;20.956;2022-10-16T06:19:19;12.43;83.66
65598;SHT31;52267;51.984;20.956;2022-10-16T06:21:45;12.55;83.14
65598;SHT31;52267;51.984;20.956;2022-10-16T06:24:11;12.69;83.28
65598;SHT31;52267;51.984;20.956;2022-10-16T06:26:37;12.82;82.95
65598;SHT31;52267;51.984;20.956;2022-10-16T06:29:04;12.92;82.83
65598;SHT31;52267;51.984;20.956;2022-10-16T06:31:30;12.98;82.31
65598;SHT31;52267;51.984;20.956;2022-10-16T06:33:59;13.07;82.03
65598;SHT31;52267;51.984;20.956;2022-10-16T06:36:26;13.22;81.94
65598;SHT31;52267;51.984;20.956;2022-10-16T06:38:53;13.35;81.63
65598;SHT31;52267;51.984;20.956;2022-10-16T06:41:20;13.46;81.23
65598;SHT31;52267;51.984;20.956;2022-10-16T06:43:47;13.54;80.96
65598;SHT31;52267;51.984;20.956;2022-10-16T06:46:15;13.61;80.82
65598;SHT31;52267;51.984;20.956;2022-10-16T06:48:43;13.69;80.58
65598;SHT31;52267;51.984;20.956;2022-10-16T06:51:14;13.80;80.49
65598;SHT31;52267;51.984;20.956;2022-10-16T06:53:46;13.90;79.85
65598;SHT31;52267;51.984;20.956;2022-10-16T06:56:16;13.97;79.86
65598;SHT31;52267;51.984;20.956;2022-10-16T06:58:48;14.06;79.49
65598;SHT31;52267;51.984;20.956;2022-10-16T07:01:16;14.12;79.51
65598;SHT31;52267;51.984;20.956;2022-10-16T07:03:45;14.17;79.42
65598;SHT31;52267;51.984;20.956;2022-10-16T07:06:13;14.24;79.41
65598;SHT31;52267;51.984;20.956;2022-10-16T07:08:43;14.29;79.10
65598;SHT31;52267;51.984;20.956;2022-10-16T07:11:12;14.35;79.17
65598;SHT31;52267;51.984;20.956;2022-10-16T07:13:46;14.40;78.86
65598;SHT31;52267;51.984;20.956;2022-10-16T07:16:15;14.44;78.92
65598;SHT31;52267;51.984;20.956;2022-10-16T07:18:46;14.45;78.68
65598;SHT31;52267;51.984;20.956;2022-10-16T07:21:15;14.49;78.93
65598;SHT31;52267;51.984;20.956;2022-10-16T07:23:45;14.53;79.01
65598;SHT31;52267;51.984;20.956;2022-10-16T07:26:15;14.56;78.56
65598;SHT31;52267;51.984;20.956;2022-10-16T07:28:42;14.59;78.75
65598;SHT31;52267;51.984;20.956;2022-10-16T07:31:10;14.57;78.64
65598;SHT31;52267;51.984;20.956;2022-10-16T07:33:39;14.59;78.83
65598;SHT31;52267;51.984;20.956;2022-10-16T07:36:10;14.64;78.91
65598;SHT31;52267;51.984;20.956;2022-10-16T07:38:37;14.71;78.61
65598;SHT31;52267;51.984;20.956;2022-10-16T07:41:04;14.80;78.06
65598;SHT31;52267;51.984;20.956;2022-10-16T07:43:33;14.92;77.93
65598;SHT31;52267;51.984;20.956;2022-10-16T07:45:59;15.05;77.51
65598;SHT31;52267;51.984;20.956;2022-10-16T07:48:27;15.16;77.47
65598;SHT31;52267;51.984;20.956;2022-10-16T07:50:57;15.28;77.34
65598;SHT31;52267;51.984;20.956;2022-10-16T07:53:25;15.36;77.13
65598;SHT31;52267;51.984;20.956;2022-10-16T07:55:52;15.46;77.18
65598;SHT31;52267;51.984;20.956;2022-10-16T07:58:18;15.58;76.84
65598;SHT31;52267;51.984;20.956;2022-10-16T08:00:44;15.75;75.44
65598;SHT31;52267;51.984;20.956;2022-10-16T08:03:11;15.89;74.96
65598;SHT31;52267;51.984;20.956;2022-10-16T08:05:37;16.01;74.52
65598;SHT31;52267;51.984;20.956;2022-10-16T08:08:03;16.12;74.82
65598;SHT31;52267;51.984;20.956;2022-10-16T08:10:29;16.21;74.54
65598;SHT31;52267;51.984;20.956;2022-10-16T08:12:57;16.22;74.08
65598;SHT31;52267;51.984;20.956;2022-10-16T08:15:24;16.27;74.74
65598;SHT31;52267;51.984;20.956;2022-10-16T08:17:56;16.35;74.34
65598;SHT31;52267;51.984;20.956;2022-10-16T08:20:26;16.40;74.38
65598;SHT31;52267;51.984;20.956;2022-10-16T08:22:53;16.44;73.66
65598;SHT31;52267;51.984;20.956;2022-10-16T08:25:21;16.51;74.06
65598;SHT31;52267;51.984;20.956;2022-10-16T08:27:49;16.59;74.23
65598;SHT31;52267;51.984;20.956;2022-10-16T08:30:17;16.71;74.32
65598;SHT31;52267;51.984;20.956;2022-10-16T08:32:44;16.84;73.56
65598;SHT31;52267;51.984;20.956;2022-10-16T08:35:12;16.94;73.31
65598;SHT31;52267;51.984;20.956;2022-10-16T08:37:40;17.02;72.77
65598;SHT31;52267;51.984;20.956;2022-10-16T08:40:11;17.08;73.39
65598;SHT31;52267;51.984;20.956;2022-10-16T08:51:18;17.38;72.61
65598;SHT31;52267;51.984;20.956;2022-10-16T08:56:24;17.50;72.00
65598;SHT31;52267;51.984;20.956;2022-10-16T08:58:52;17.54;72.48
65598;SHT31;52267;51.984;20.956;2022-10-16T09:01:20;17.57;71.60
65598;SHT31;52267;51.984;20.956;2022-10-16T09:06:54;17.65;71.30
65598;SHT31;52267;51.984;20.956;2022-10-16T09:13:16;17.74;72.20
65598;SHT31;52267;51.984;20.956;2022-10-16T09:18:30;17.77;71.81
65598;SHT31;52267;51.984;20.956;2022-10-16T09:21:31;17.82;72.03
65598;SHT31;52267;51.984;20.956;2022-10-16T09:24:19;17.84;71.67
65598;SHT31;52267;51.984;20.956;2022-10-16T09:26:49;17.92;72.03
65598;SHT31;52267;51.984;20.956;2022-10-16T09:29:16;18.05;71.82
65598;SHT31;52267;51.984;20.956;2022-10-16T09:31:46;18.18;71.80
65598;SHT31;52267;51.984;20.956;2022-10-16T09:37:18;18.45;70.36
65598;SHT31;52267;51.984;20.956;2022-10-16T09:39:48;18.49;70.23
65598;SHT31;52267;51.984;20.956;2022-10-16T09:42:17;18.48;70.00
65598;SHT31;52267;51.984;20.956;2022-10-16T09:44:52;18.52;70.21
65598;SHT31;52267;51.984;20.956;2022-10-16T09:47:29;18.59;70.40
65598;SHT31;52267;51.984;20.956;2022-10-16T09:49:58;18.70;70.81
65598;SHT31;52267;51.984;20.956;2022-10-16T09:52:48;18.79;69.33
65598;SHT31;52267;51.984;20.956;2022-10-16T09:55:15;18.86;69.42
65598;SHT31;52267;51.984;20.956;2022-10-16T09:57:53;18.94;69.02
65598;SHT31;52267;51.984;20.956;2022-10-16T10:00:22;18.98;68.59
65598;SHT31;52267;51.984;20.956;2022-10-16T10:02:49;19.03;68.43
65598;SHT31;52267;51.984;20.956;2022-10-16T10:05:23;19.11;69.15
65598;SHT31;52267;51.984;20.956;2022-10-16T10:07:59;19.15;68.59
65598;SHT31;52267;51.984;20.956;2022-10-16T10:10:32;19.17;68.92
65598;SHT31;52267;51.984;20.956;2022-10-16T10:13:18;19.19;68.27
65598;SHT31;52267;51.984;20.956;2022-10-16T10:15:47;19.26;68.95
65598;SHT31;52267;51.984;20.956;2022-10-16T10:18:20;19.34;68.57
65598;SHT31;52267;51.984;20.956;2022-10-16T10:21:02;19.38;68.45
65598;SHT31;52267;51.984;20.956;2022-10-16T10:23:31;19.40;67.36
65598;SHT31;52267;51.984;20.956;2022-10-16T10:26:17;19.42;67.48
65598;SHT31;52267;51.984;20.956;2022-10-16T10:28:52;19.48;68.00
65598;SHT31;52267;51.984;20.956;2022-10-16T10:43:16;19.59;66.86
65598;SHT31;52267;51.984;20.956;2022-10-16T10:46:32;19.64;66.93
65598;SHT31;52267;51.984;20.956;2022-10-16T11:04:17;19.66;66.96
65598;SHT31;52267;51.984;20.956;2022-10-16T11:06:58;19.69;67.03
65598;SHT31;52267;51.984;20.956;2022-10-16T11:09:31;19.73;67.15
65598;SHT31;52267;51.984;20.956;2022-10-16T11:15:31;19.72;66.51
65598;SHT31;52267;51.984;20.956;2022-10-16T11:20:37;19.81;66.30
65598;SHT31;52267;51.984;20.956;2022-10-16T11:23:18;19.88;65.90
65598;SHT31;52267;51.984;20.956;2022-10-16T11:25:53;19.92;65.81
65598;SHT31;52267;51.984;20.956;2022-10-16T11:29:12;19.94;65.76
65598;SHT31;52267;51.984;20.956;2022-10-16T11:31:17;19.96;66.05
65598;SHT31;52267;51.984;20.956;2022-10-16T11:34:36;19.96;65.71
65598;SHT31;52267;51.984;20.956;2022-10-16T11:36:50;19.95;65.25
65598;SHT31;52267;51.984;20.956;2022-10-16T11:39:27;19.95;65.91
65598;SHT31;52267;51.984;20.956;2022-10-16T11:44:42;19.98;65.68
65598;SHT31;52267;51.984;20.956;2022-10-16T11:47:30;20.09;65.98
65598;SHT31;52267;51.984;20.956;2022-10-16T11:50:02;20.20;65.78
65598;SHT31;52267;51.984;20.956;2022-10-16T11:55:42;20.29;65.34
65598;SHT31;52267;51.984;20.956;2022-10-16T12:01:22;20.20;64.99
65598;SHT31;52267;51.984;20.956;2022-10-16T12:07:06;20.28;65.37
65598;SHT31;52267;51.984;20.956;2022-10-16T12:09:47;20.37;65.59
65598;SHT31;52267;51.984;20.956;2022-10-16T12:12:27;20.44;65.79
65598;SHT31;52267;51.984;20.956;2022-10-16T12:15:25;20.51;64.90
65598;SHT31;52267;51.984;20.956;2022-10-16T12:17:54;20.58;64.65
65598;SHT31;52267;51.984;20.956;2022-10-16T12:20:29;20.52;64.54
65598;SHT31;52267;51.984;20.956;2022-10-16T12:23:05;20.49;64.72
65598;SHT31;52267;51.984;20.956;2022-10-16T12:25:33;20.47;64.73
65598;SHT31;52267;51.984;20.956;2022-10-16T12:30:41;20.55;64.80
65598;SHT31;52267;51.984;20.956;2022-10-16T12:33:19;20.53;64.29
65598;SHT31;52267;51.984;20.956;2022-10-16T12:36:15;20.53;64.56
65598;SHT31;52267;51.984;20.956;2022-10-16T12:38:54;20.53;64.82
65598;SHT31;52267;51.984;20.956;2022-10-16T12:41:25;20.55;64.64
65598;SHT31;52267;51.984;20.956;2022-10-16T12:43:57;20.58;64.88
65598;SHT31;52267;51.984;20.956;2022-10-16T12:59:41;20.67;64.55
65598;SHT31;52267;51.984;20.956;2022-10-16T13:02:49;20.73;64.63
65598;SHT31;52267;51.984;20.956;2022-10-16T13:14:10;20.84;64.86
65598;SHT31;52267;51.984;20.956;2022-10-16T13:25:56;20.72;64.83
65598;SHT31;52267;51.984;20.956;2022-10-16T13:28:45;20.64;65.14
65598;SHT31;52267;51.984;20.956;2022-10-16T13:31:29;20.63;65.46
65598;SHT31;52267;51.984;20.956;2022-10-16T13:33:58;20.58;65.75
65598;SHT31;52267;51.984;20.956;2022-10-16T13:36:27;20.60;65.55
65598;SHT31;52267;51.984;20.956;2022-10-16T13:39:00;20.61;65.61
65598;SHT31;52267;51.984;20.956;2022-10-16T13:41:37;20.60;65.64
65598;SHT31;52267;51.984;20.956;2022-10-16T13:44:04;20.52;65.76
65598;SHT31;52267;51.984;20.956;2022-10-16T13:46:38;20.48;65.84
65598;SHT31;52267;51.984;20.956;2022-10-16T13:49:10;20.40;65.89
65598;SHT31;52267;51.984;20.956;2022-10-16T13:51:40;20.33;66.05
65598;SHT31;52267;51.984;20.956;2022-10-16T13:54:10;20.26;66.19
65598;SHT31;52267;51.984;20.956;2022-10-16T13:56:38;20.22;66.43
65598;SHT31;52267;51.984;20.956;2022-10-16T13:59:07;20.13;66.77
65598;SHT31;52267;51.984;20.956;2022-10-16T14:01:50;20.02;66.91
65598;SHT31;52267;51.984;20.956;2022-10-16T14:04:19;19.95;66.86
65598;SHT31;52267;51.984;20.956;2022-10-16T14:06:46;19.93;67.24
65598;SHT31;52267;51.984;20.956;2022-10-16T14:12:00;19.86;67.59
65598;SHT31;52267;51.984;20.956;2022-10-16T14:14:34;19.84;67.65
65598;SHT31;52267;51.984;20.956;2022-10-16T14:17:13;19.81;67.82
65598;SHT31;52267;51.984;20.956;2022-10-16T14:19:49;19.79;68.05
65598;SHT31;52267;51.984;20.956;2022-10-16T14:22:37;19.79;68.13
65598;SHT31;52267;51.984;20.956;2022-10-16T14:28:03;19.74;68.54
65598;SHT31;52267;51.984;20.956;2022-10-16T14:30:59;19.71;68.70
65598;SHT31;52267;51.984;20.956;2022-10-16T14:36:11;19.69;68.93
65598;SHT31;52267;51.984;20.956;2022-10-16T14:38:48;19.67;69.03
65598;SHT31;52267;51.984;20.956;2022-10-16T14:41:27;19.66;69.10
65598;SHT31;52267;51.984;20.956;2022-10-16T14:44:03;19.66;69.16
65598;SHT31;52267;51.984;20.956;2022-10-16T14:46:34;19.64;69.27
65598;SHT31;52267;51.984;20.956;2022-10-16T14:49:15;19.64;69.36
65598;SHT31;52267;51.984;20.956;2022-10-16T14:51:47;19.61;69.49
65598;SHT31;52267;51.984;20.956;2022-10-16T14:54:17;19.59;69.79
65598;SHT31;52267;51.984;20.956;2022-10-16T14:56:51;19.56;69.98
65598;SHT31;52267;51.984;20.956;2022-10-16T14:59:53;19.54;69.99
65598;SHT31;52267;51.984;20.956;2022-10-16T15:04:55;19.43;70.34
65598;SHT31;52267;51.984;20.956;2022-10-16T15:07:22;19.37;70.50
65598;SHT31;52267;51.984;20.956;2022-10-16T15:09:48;19.33;70.61
65598;SHT31;52267;51.984;20.956;2022-10-16T15:12:15;19.27;70.74
65598;SHT31;52267;51.984;20.956;2022-10-16T15:14:42;19.22;70.99
65598;SHT31;52267;51.984;20.956;2022-10-16T15:17:09;19.15;71.07
65598;SHT31;52267;51.984;20.956;2022-10-16T15:19:37;19.10;71.32
65598;SHT31;52267;51.984;20.956;2022-10-16T15:22:03;19.03;71.42
65598;SHT31;52267;51.984;20.956;2022-10-16T15:24:30;18.98;71.56
65598;SHT31;52267;51.984;20.956;2022-10-16T15:26:56;18.92;71.65
65598;SHT31;52267;51.984;20.956;2022-10-16T15:29:22;18.85;71.81
65598;SHT31;52267;51.984;20.956;2022-10-16T15:31:48;18.79;71.98
65598;SHT31;52267;51.984;20.956;2022-10-16T15:34:15;18.74;72.13
65598;SHT31;52267;51.984;20.956;2022-10-16T15:36:42;18.68;72.23
65598;SHT31;52267;51.984;20.956;2022-10-16T15:39:15;18.61;72.43
65598;SHT31;52267;51.984;20.956;2022-10-16T15:41:45;18.54;72.66
65598;SHT31;52267;51.984;20.956;2022-10-16T15:44:19;18.48;72.83
65598;SHT31;52267;51.984;20.956;2022-10-16T15:46:49;18.43;72.99
65598;SHT31;52267;51.984;20.956;2022-10-16T15:49:15;18.36;73.11
65598;SHT31;52267;51.984;20.956;2022-10-16T15:51:41;18.30;73.25
65598;SHT31;52267;51.984;20.956;2022-10-16T15:54:08;18.23;73.49
65598;SHT31;52267;51.984;20.956;2022-10-16T15:56:35;18.11;73.87
65598;SHT31;52267;51.984;20.956;2022-10-16T15:59:02;18.00;74.04
65598;SHT31;52267;51.984;20.956;2022-10-16T16:01:31;17.94;74.17
65598;SHT31;52267;51.984;20.956;2022-10-16T16:04:00;17.88;74.27
65598;SHT31;52267;51.984;20.956;2022-10-16T16:06:26;17.83;74.35
65598;SHT31;52267;51.984;20.956;2022-10-16T16:08:54;17.79;74.48
65598;SHT31;52267;51.984;20.956;2022-10-16T16:11:20;17.76;74.52
65598;SHT31;52267;51.984;20.956;2022-10-16T16:13:49;17.72;74.65
65598;SHT31;52267;51.984;20.956;2022-10-16T16:16:15;17.68;74.85
65598;SHT31;52267;51.984;20.956;2022-10-16T16:18:44;17.63;75.04
65598;SHT31;52267;51.984;20.956;2022-10-16T16:21:11;17.56;75.22
65598;SHT31;52267;51.984;20.956;2022-10-16T16:23:38;17.52;75.38
65598;SHT31;52267;51.984;20.956;2022-10-16T16:26:05;17.48;75.39
65598;SHT31;52267;51.984;20.956;2022-10-16T16:28:52;17.45;75.61
65598;SHT31;52267;51.984;20.956;2022-10-16T16:31:24;17.40;75.70
65598;SHT31;52267;51.984;20.956;2022-10-16T16:33:53;17.34;75.92
65598;SHT31;52267;51.984;20.956;2022-10-16T16:36:20;17.29;76.02
65598;SHT31;52267;51.984;20.956;2022-10-16T16:38:47;17.24;76.15
65598;SHT31;52267;51.984;20.956;2022-10-16T16:41:13;17.17;76.49
65598;SHT31;52267;51.984;20.956;2022-10-16T16:43:47;17.12;76.57
65598;SHT31;52267;51.984;20.956;2022-10-16T16:46:18;17.09;76.64
65598;SHT31;52267;51.984;20.956;2022-10-16T16:48:48;17.06;76.70
65598;SHT31;52267;51.984;20.956;2022-10-16T16:51:17;17.04;76.82
65598;SHT31;52267;51.984;20.956;2022-10-16T16:53:48;17.00;76.93
65598;SHT31;52267;51.984;20.956;2022-10-16T16:56:20;16.97;77.12
65598;SHT31;52267;51.984;20.956;2022-10-16T16:58:51;16.93;77.26
65598;SHT31;52267;51.984;20.956;2022-10-16T17:01:24;16.88;77.43
65598;SHT31;52267;51.984;20.956;2022-10-16T17:03:53;16.84;77.55
65598;SHT31;52267;51.984;20.956;2022-10-16T17:06:23;16.80;77.65
65598;SHT31;52267;51.984;20.956;2022-10-16T17:08:52;16.75;77.74
65598;SHT31;52267;51.984;20.956;2022-10-16T17:11:21;16.70;77.88
65598;SHT31;52267;51.984;20.956;2022-10-16T17:13:50;16.65;77.98
65598;SHT31;52267;51.984;20.956;2022-10-16T17:16:21;16.61;78.12
65598;SHT31;52267;51.984;20.956;2022-10-16T17:18:52;16.57;78.15
65598;SHT31;52267;51.984;20.956;2022-10-16T17:21:19;16.54;78.24
65598;SHT31;52267;51.984;20.956;2022-10-16T17:23:46;16.52;78.37
65598;SHT31;52267;51.984;20.956;2022-10-16T17:26:14;16.46;78.68
65598;SHT31;52267;51.984;20.956;2022-10-16T17:28:42;16.43;78.83
65598;SHT31;52267;51.984;20.956;2022-10-16T17:31:17;16.39;78.85
65598;SHT31;52267;51.984;20.956;2022-10-16T17:33:50;16.34;78.98
65598;SHT31;52267;51.984;20.956;2022-10-16T17:36:18;16.31;79.07
65598;SHT31;52267;51.984;20.956;2022-10-16T17:38:47;16.27;79.09
65598;SHT31;52267;51.984;20.956;2022-10-16T17:41:21;16.25;79.27
65598;SHT31;52267;51.984;20.956;2022-10-16T17:43:49;16.23;79.36
65598;SHT31;52267;51.984;20.956;2022-10-16T17:46:18;16.23;79.42
65598;SHT31;52267;51.984;20.956;2022-10-16T17:48:49;16.23;79.47